Time;durP1;ratioP1;P1;durP2;ratioP2;P2;SDS_P1;SDS_P2;PMS_P1;PMS_P2;Temp;Humidity;BMP_temperature;BMP_pressure;BME280_temperature;BME280_humidity;BME280_pressure;Samples;Min_cycle;Max_cycle;Signal;HPM_P1;HPM_P2
2020/12/02 00:00:42;;;;;;;2.55;1.67;;;8.40;85.60;;;;;;5052345;28;20113;-82
2020/12/02 00:03:27;;;;;;;4.28;2.17;;;8.40;85.80;;;;;;5052862;28;20347;-82
2020/12/02 00:05:55;;;;;;;3.45;1.95;;;8.40;85.90;;;;;;5052708;28;20104;-82
2020/12/02 00:08:57;;;;;;;3.75;2.47;;;8.40;86.00;;;;;;5053064;28;20700;-82
2020/12/02 00:11:25;;;;;;;2.25;1.58;;;8.40;85.90;;;;;;5056709;28;20482;-83
2020/12/02 00:13:51;;;;;;;1.98;1.52;;;8.40;85.90;;;;;;5057430;28;20021;-84
2020/12/02 00:16:25;;;;;;;3.20;2.42;;;8.40;85.80;;;;;;5055384;28;20021;-83
2020/12/02 00:18:52;;;;;;;3.55;2.10;;;8.40;85.80;;;;;;5055405;28;20048;-83
2020/12/02 00:21:18;;;;;;;2.92;1.92;;;8.40;85.80;;;;;;5056172;28;20116;-83
2020/12/02 00:23:44;;;;;;;3.50;2.05;;;8.40;85.80;;;;;;5054402;28;20048;-83
2020/12/02 00:26:13;;;;;;;3.80;2.38;;;8.30;85.80;;;;;;5056490;28;20051;-82
2020/12/02 00:28:38;;;;;;;3.03;2.10;;;8.30;85.90;;;;;;5055278;28;20025;-82
2020/12/02 00:31:04;;;;;;;2.67;1.67;;;8.30;85.90;;;;;;5056753;28;20028;-83
2020/12/02 00:33:30;;;;;;;3.25;1.98;;;8.30;85.90;;;;;;5054841;28;20048;-82
2020/12/02 00:35:56;;;;;;;2.22;1.80;;;8.30;85.90;;;;;;5056601;28;20021;-83
2020/12/02 00:38:23;;;;;;;2.95;2.28;;;8.30;86.00;;;;;;5053937;28;20124;-83
2020/12/02 00:40:50;;;;;;;2.65;2.00;;;8.30;86.10;;;;;;5055412;28;20039;-83
2020/12/02 00:43:19;;;;;;;1.90;1.40;;;8.30;86.20;;;;;;5055535;28;20021;-83
2020/12/02 00:45:45;;;;;;;2.43;1.90;;;8.30;86.20;;;;;;5036673;28;20351;-83
2020/12/02 00:48:22;;;;;;;3.30;1.48;;;8.30;86.20;;;;;;5036706;28;20399;-83
2020/12/02 00:50:48;;;;;;;2.63;1.67;;;8.30;86.10;;;;;;5040582;28;20045;-83
2020/12/02 00:53:17;;;;;;;2.17;1.58;;;8.30;86.10;;;;;;5039348;28;20136;-83
2020/12/02 00:55:48;;;;;;;2.03;1.40;;;8.30;86.30;;;;;;5051481;28;20419;-84
2020/12/02 00:58:27;;;;;;;1.80;1.55;;;8.30;86.10;;;;;;5056593;28;20283;-82
2020/12/02 01:00:53;;;;;;;;;;;8.30;86.10;;;;;;5057562;28;20029;-82
2020/12/02 01:03:26;;;;;;;2.60;2.15;;;8.20;85.90;;;;;;5057331;28;20330;-83
2020/12/02 01:05:54;;;;;;;2.42;1.42;;;8.20;86.10;;;;;;5060475;28;20033;-83
2020/12/02 01:08:27;;;;;;;1.13;1.02;;;8.30;86.20;;;;;;5061982;28;20025;-84
2020/12/02 01:11:01;;;;;;;2.60;1.55;;;8.20;86.10;;;;;;5052306;28;20029;-84
2020/12/02 01:13:27;;;;;;;1.50;1.40;;;8.30;86.10;;;;;;5055761;28;20029;-84
2020/12/02 01:15:52;;;;;;;2.58;1.70;;;8.30;86.10;;;;;;5054383;28;20474;-84
2020/12/02 01:18:22;;;;;;;2.50;1.80;;;8.30;86.00;;;;;;5054802;28;20017;-83
2020/12/02 01:21:01;;;;;;;3.90;2.45;;;8.40;86.00;;;;;;5053647;28;20025;-84
2020/12/02 01:23:28;;;;;;;2.88;1.73;;;8.30;85.90;;;;;;5054182;28;20090;-83
2020/12/02 01:25:54;;;;;;;2.33;1.48;;;8.30;86.00;;;;;;5055705;28;20017;-83
2020/12/02 01:28:26;;;;;;;1.58;1.42;;;8.30;86.10;;;;;;5054923;28;20745;-83
2020/12/02 01:30:53;;;;;;;2.28;1.88;;;8.30;86.00;;;;;;5054389;28;20032;-84
2020/12/02 01:33:19;;;;;;;2.17;1.63;;;8.40;86.10;;;;;;5053501;28;20060;-84
2020/12/02 01:35:46;;;;;;;2.95;2.05;;;8.40;86.00;;;;;;5055231;28;20466;-84
2020/12/02 01:38:16;;;;;;;2.95;1.50;;;8.40;86.00;;;;;;5053260;28;20021;-83
2020/12/02 01:40:43;;;;;;;1.92;1.65;;;8.40;85.90;;;;;;5054212;28;20082;-83
2020/12/02 01:43:11;;;;;;;3.00;2.08;;;8.40;85.90;;;;;;5055138;28;20060;-84
2020/12/02 01:45:43;;;;;;;2.45;1.90;;;8.30;85.90;;;;;;5055662;28;20070;-83
2020/12/02 01:48:20;;;;;;;3.00;1.70;;;8.40;85.90;;;;;;5054689;28;20025;-84
2020/12/02 01:50:50;;;;;;;3.20;2.15;;;8.30;85.90;;;;;;5054035;28;20033;-84
2020/12/02 01:53:33;;;;;;;3.42;1.85;;;8.30;86.00;;;;;;5053199;28;20162;-84
2020/12/02 01:56:08;;;;;;;2.88;1.85;;;8.30;85.90;;;;;;5053700;28;20036;-83
2020/12/02 01:59:02;;;;;;;3.15;1.90;;;8.30;86.00;;;;;;5035460;28;20037;-84
2020/12/02 02:01:41;;;;;;;1.75;1.30;;;8.20;86.10;;;;;;5039247;28;20359;-83
2020/12/02 02:04:13;;;;;;;1.88;1.58;;;8.20;86.20;;;;;;5053814;28;20108;-84
2020/12/02 02:07:06;;;;;;;2.25;1.80;;;8.20;86.30;;;;;;5053281;28;20029;-83
2020/12/02 02:09:33;;;;;;;2.72;1.45;;;8.20;86.30;;;;;;5033702;28;20021;-84
2020/12/02 02:12:22;;;;;;;1.77;1.60;;;8.20;86.30;;;;;;5049851;28;20453;-82
2020/12/02 02:15:02;;;;;;;1.90;1.60;;;8.20;86.20;;;;;;5065216;28;20071;-83
2020/12/02 02:17:27;;;;;;;3.05;1.70;;;8.20;86.20;;;;;;5055328;28;20116;-84
2020/12/02 02:19:53;;;;;;;2.60;1.67;;;8.20;86.20;;;;;;5053292;28;20104;-84
2020/12/02 02:22:18;;;;;;;2.28;1.67;;;8.30;86.10;;;;;;5054753;28;20029;-84
2020/12/02 02:24:47;;;;;;;2.47;1.77;;;8.30;86.00;;;;;;5052199;28;20077;-84
2020/12/02 02:27:13;;;;;;;2.22;1.80;;;8.30;85.90;;;;;;5054067;28;20029;-84
2020/12/02 02:29:42;;;;;;;2.97;1.75;;;8.30;85.90;;;;;;5054469;28;20112;-84
2020/12/02 02:32:14;;;;;;;2.60;1.45;;;8.30;85.90;;;;;;5052986;28;20060;-84
2020/12/02 02:34:44;;;;;;;2.97;1.80;;;8.30;85.80;;;;;;5052994;28;20021;-84
2020/12/02 02:37:13;;;;;;;3.97;2.42;;;8.30;85.90;;;;;;5053959;28;20032;-84
2020/12/02 02:39:40;;;;;;;2.45;1.90;;;8.30;85.90;;;;;;5052391;28;20368;-83
2020/12/02 02:42:27;;;;;;;2.45;2.15;;;8.30;86.00;;;;;;5053957;28;20328;-83
2020/12/02 02:44:54;;;;;;;3.20;1.85;;;8.30;86.00;;;;;;5053051;28;20518;-83
2020/12/02 02:47:20;;;;;;;2.17;1.67;;;8.30;86.10;;;;;;5054428;28;20086;-83
2020/12/02 02:49:45;;;;;;;3.08;2.30;;;8.30;86.00;;;;;;5053743;28;20115;-83
2020/12/02 02:52:11;;;;;;;3.20;2.20;;;8.30;86.00;;;;;;5053372;28;20040;-84
2020/12/02 02:54:37;;;;;;;2.60;1.92;;;8.30;85.90;;;;;;5051599;28;20029;-83
2020/12/02 02:57:03;;;;;;;2.25;2.03;;;8.30;85.90;;;;;;5052889;28;20029;-84
2020/12/02 02:59:28;;;;;;;2.08;1.60;;;8.30;86.00;;;;;;5053858;28;20366;-84
2020/12/02 03:01:54;;;;;;;2.92;1.90;;;8.40;86.00;;;;;;5053848;28;20032;-84
2020/12/02 03:04:20;;;;;;;1.95;1.50;;;8.40;86.00;;;;;;5051829;28;20021;-82
2020/12/02 03:06:46;;;;;;;2.33;1.60;;;8.40;85.90;;;;;;5052171;28;20031;-84
2020/12/02 03:09:12;;;;;;;2.90;1.60;;;8.40;85.80;;;;;;5052468;28;20036;-83
2020/12/02 03:11:39;;;;;;;1.33;1.10;;;8.30;85.80;;;;;;5052659;28;20045;-82
2020/12/02 03:14:06;;;;;;;1.55;1.13;;;8.40;85.90;;;;;;5052637;28;20059;-82
2020/12/02 03:16:54;;;;;;;1.63;1.52;;;8.40;85.90;;;;;;5051901;28;20021;-83
2020/12/02 03:19:28;;;;;;;1.95;1.25;;;8.40;85.80;;;;;;5052114;28;20028;-84
2020/12/02 03:22:01;;;;;;;2.08;1.42;;;8.40;85.90;;;;;;5053255;28;20470;-83
2020/12/02 03:24:28;;;;;;;3.38;1.70;;;8.40;85.80;;;;;;5051200;28;20029;-83
2020/12/02 03:26:53;;;;;;;1.45;1.33;;;8.30;85.90;;;;;;5051743;28;20021;-83
2020/12/02 03:29:19;;;;;;;1.83;1.33;;;8.30;85.90;;;;;;5053621;28;20029;-84
2020/12/02 03:31:46;;;;;;;1.90;1.73;;;8.30;86.00;;;;;;5051977;28;20029;-84
2020/12/02 03:34:16;;;;;;;2.88;1.52;;;8.30;86.00;;;;;;5051962;28;20090;-83
2020/12/02 03:36:42;;;;;;;2.30;1.63;;;8.30;86.20;;;;;;5053234;28;20119;-83
2020/12/02 03:39:10;;;;;;;1.83;1.40;;;8.30;86.00;;;;;;5052160;28;20064;-83
2020/12/02 03:41:37;;;;;;;2.15;1.38;;;8.30;85.90;;;;;;5053066;28;20025;-84
2020/12/02 03:44:02;;;;;;;2.50;1.83;;;8.30;86.10;;;;;;5053933;28;20020;-83
2020/12/02 03:46:28;;;;;;;2.55;1.55;;;8.30;86.00;;;;;;5057870;28;20531;-83
2020/12/02 03:48:54;;;;;;;2.28;1.60;;;8.30;85.90;;;;;;5067549;28;20099;-84
2020/12/02 03:51:35;;;;;;;2.65;2.05;;;8.30;86.00;;;;;;5063816;28;20036;-82
2020/12/02 03:54:02;;;;;;;2.60;1.98;;;8.40;86.00;;;;;;5063883;28;20108;-83
2020/12/02 03:56:28;;;;;;;2.63;1.92;;;8.30;86.10;;;;;;5053834;28;20029;-83
2020/12/02 03:58:53;;;;;;;2.88;1.95;;;8.30;86.00;;;;;;5051973;28;20067;-84
2020/12/02 04:01:20;;;;;;;1.42;1.30;;;8.30;86.00;;;;;;5053424;28;20034;-84
2020/12/02 04:03:45;;;;;;;3.28;2.55;;;8.30;86.10;;;;;;5051026;28;20525;-83
2020/12/02 04:06:11;;;;;;;2.30;1.73;;;8.30;86.00;;;;;;5053405;28;20017;-83
2020/12/02 04:08:39;;;;;;;2.20;1.95;;;8.30;85.90;;;;;;5034245;28;20029;-83
2020/12/02 04:11:07;;;;;;;2.58;1.73;;;8.30;85.90;;;;;;5046467;28;20041;-83
2020/12/02 04:13:33;;;;;;;3.03;1.98;;;8.30;85.90;;;;;;5053130;28;20025;-83
2020/12/02 04:15:59;;;;;;;2.72;1.98;;;8.30;86.00;;;;;;5053746;28;20339;-83
2020/12/02 04:18:25;;;;;;;2.67;2.30;;;8.30;86.00;;;;;;5052451;28;20532;-84
2020/12/02 04:20:51;;;;;;;3.83;2.17;;;8.20;85.90;;;;;;5051237;28;20120;-83
2020/12/02 04:23:16;;;;;;;1.88;1.77;;;8.20;86.10;;;;;;5050383;28;20060;-83
2020/12/02 04:25:42;;;;;;;2.08;1.38;;;8.20;86.20;;;;;;5050036;28;20033;-83
2020/12/02 04:28:08;;;;;;;2.70;1.50;;;8.20;86.20;;;;;;5051144;28;20047;-84
2020/12/02 04:30:33;;;;;;;2.10;1.55;;;8.20;86.20;;;;;;5051456;28;20539;-84
2020/12/02 04:32:59;;;;;;;3.97;1.92;;;8.20;86.30;;;;;;5052711;28;20041;-83
2020/12/02 04:35:24;;;;;;;3.08;1.83;;;8.20;86.20;;;;;;5051903;28;20021;-86
2020/12/02 04:37:50;;;;;;;1.95;1.60;;;8.20;86.20;;;;;;5050614;28;20413;-83
2020/12/02 04:40:23;;;;;;;2.28;1.70;;;8.20;86.30;;;;;;5048150;28;20037;-81
2020/12/02 04:42:57;;;;;;;1.85;1.50;;;8.20;86.30;;;;;;5052379;28;20459;-84
2020/12/02 04:45:23;;;;;;;2.67;1.80;;;8.20;86.30;;;;;;5052139;28;20029;-81
2020/12/02 04:47:49;;;;;;;2.13;1.77;;;8.20;86.20;;;;;;5050362;28;20029;-82
2020/12/02 04:50:25;;;;;;;2.50;1.80;;;8.20;86.30;;;;;;5052163;28;20064;-81
2020/12/02 04:53:22;;;;;;;2.35;1.45;;;8.20;86.40;;;;;;5048775;28;20470;-82
2020/12/02 04:55:51;;;;;;;1.73;1.55;;;8.20;86.50;;;;;;5055209;28;20028;-82
2020/12/02 04:58:33;;;;;;;2.50;1.60;;;8.10;86.50;;;;;;5055031;28;20032;-81
2020/12/02 05:01:44;;;;;;;1.48;1.23;;;8.20;86.50;;;;;;5055350;28;20108;-81
2020/12/02 05:04:21;;;;;;;2.55;1.65;;;8.10;86.20;;;;;;5038809;28;20043;-82
2020/12/02 05:07:17;;;;;;;2.20;1.10;;;8.10;86.30;;;;;;5054788;28;20041;-81
2020/12/02 05:10:14;;;;;;;2.88;2.13;;;8.10;86.20;;;;;;5035775;28;20028;-82
2020/12/02 05:12:42;;;;;;;3.58;2.55;;;8.20;86.40;;;;;;5046201;28;20140;-81
2020/12/02 05:15:27;;;;;;;1.70;1.60;;;8.10;86.40;;;;;;5046620;28;20033;-82
2020/12/02 05:18:14;;;;;;;2.65;1.45;;;8.10;86.30;;;;;;5058769;28;20104;-82
2020/12/02 05:20:41;;;;;;;1.63;1.02;;;8.20;86.30;;;;;;5045017;28;20048;-82
2020/12/02 05:23:25;;;;;;;2.13;1.58;;;8.10;86.30;;;;;;5041772;28;20083;-83
2020/12/02 05:25:50;;;;;;;3.38;1.85;;;8.20;86.40;;;;;;5045779;28;20040;-82
2020/12/02 05:28:40;;;;;;;2.40;1.77;;;8.10;86.50;;;;;;5054691;28;20033;-81
2020/12/02 05:31:21;;;;;;;2.38;1.83;;;8.10;86.50;;;;;;5035969;28;20045;-82
2020/12/02 05:33:47;;;;;;;3.13;1.60;;;8.10;86.50;;;;;;5052680;28;20144;-83
2020/12/02 05:36:19;;;;;;;2.42;2.20;;;8.10;86.80;;;;;;5035999;28;20648;-83
2020/12/02 05:38:59;;;;;;;2.08;1.30;;;8.10;86.50;;;;;;5047054;28;20041;-82
2020/12/02 05:41:26;;;;;;;1.20;1.02;;;8.10;86.40;;;;;;5054876;28;20443;-83
2020/12/02 05:44:14;;;;;;;2.38;1.52;;;8.10;86.50;;;;;;5055819;28;20032;-85
2020/12/02 05:46:56;;;;;;;2.28;2.00;;;8.10;86.40;;;;;;5050207;28;20109;-85
2020/12/02 05:49:31;;;;;;;2.28;1.70;;;8.10;86.40;;;;;;5072747;28;20028;-85
2020/12/02 05:51:57;;;;;;;1.45;1.33;;;8.10;86.50;;;;;;5068246;28;20025;-84
2020/12/02 05:54:25;;;;;;;1.90;1.30;;;8.10;86.40;;;;;;5071201;28;20520;-83
2020/12/02 05:56:51;;;;;;;3.00;1.50;;;8.10;86.40;;;;;;5054617;28;20013;-85
2020/12/02 05:59:18;;;;;;;3.10;1.95;;;8.10;86.40;;;;;;5055602;28;20348;-84
2020/12/02 06:01:44;;;;;;;2.05;1.65;;;8.10;86.30;;;;;;5053243;28;20102;-85
2020/12/02 06:04:13;;;;;;;3.72;2.10;;;8.10;86.30;;;;;;5069821;28;20021;-83
2020/12/02 06:06:39;;;;;;;3.47;1.67;;;8.10;86.30;;;;;;5074550;28;20064;-82
2020/12/02 06:09:04;;;;;;;1.88;1.38;;;8.10;86.30;;;;;;5059021;28;20064;-85
2020/12/02 06:11:35;;;;;;;2.05;1.73;;;8.10;87.00;;;;;;5053400;28;20033;-83
2020/12/02 06:14:03;;;;;;;2.58;1.90;;;8.10;86.40;;;;;;5054822;28;20139;-82
2020/12/02 06:16:44;;;;;;;2.47;1.58;;;8.10;86.30;;;;;;5052628;28;20057;-81
2020/12/02 06:19:25;;;;;;;2.28;1.50;;;8.10;86.40;;;;;;5053865;28;20143;-81
2020/12/02 06:22:02;;;;;;;2.47;1.70;;;8.10;86.50;;;;;;5053010;28;20417;-82
2020/12/02 06:24:42;;;;;;;1.25;1.15;;;8.10;86.70;;;;;;5052058;28;20182;-83
2020/12/02 06:27:16;;;;;;;1.50;1.15;;;8.00;87.20;;;;;;5055561;28;20031;-82
2020/12/02 06:30:05;;;;;;;1.63;1.42;;;8.00;86.60;;;;;;5053580;28;20455;-88
2020/12/02 06:32:32;;;;;;;1.75;1.42;;;8.00;86.60;;;;;;5053923;28;20049;-83
2020/12/02 06:35:19;;;;;;;1.52;1.40;;;8.00;86.60;;;;;;5053021;28;20024;-84
2020/12/02 06:38:10;;;;;;;1.67;1.33;;;8.10;87.10;;;;;;5054187;28;20017;-82
2020/12/02 06:40:36;;;;;;;1.17;0.93;;;8.00;86.50;;;;;;5035258;28;20033;-83
2020/12/02 06:43:05;;;;;;;1.83;1.17;;;8.00;86.60;;;;;;5035013;28;20399;-81
2020/12/02 06:45:37;;;;;;;1.92;1.67;;;8.10;86.60;;;;;;5036514;28;20025;-86
2020/12/02 06:48:24;;;;;;;1.38;1.15;;;8.10;86.50;;;;;;5051630;28;20066;-82
2020/12/02 06:50:55;;;;;;;1.17;1.08;;;8.10;86.30;;;;;;5033079;28;20029;-85
2020/12/02 06:53:22;;;;;;;1.55;1.17;;;8.10;86.30;;;;;;5032361;28;20399;-88
2020/12/02 06:55:54;;;;;;;1.52;1.42;;;8.10;86.30;;;;;;5017545;28;20032;-84
2020/12/02 06:58:21;;;;;;;3.67;1.92;;;8.10;86.30;;;;;;5031913;28;20033;-84
2020/12/02 07:00:49;;;;;;;2.42;1.60;;;8.10;86.40;;;;;;5026346;28;20532;-84
2020/12/02 07:03:28;;;;;;;3.13;1.75;;;8.00;86.50;;;;;;5052628;28;20029;-86
2020/12/02 07:06:13;;;;;;;2.15;1.85;;;8.00;87.20;;;;;;5035034;28;20044;-84
2020/12/02 07:08:39;;;;;;;1.60;1.27;;;8.00;86.60;;;;;;5033491;28;20032;-86
2020/12/02 07:11:14;;;;;;;1.77;0.98;;;7.90;86.70;;;;;;5034959;28;20053;-84
2020/12/02 07:13:42;;;;;;;1.33;1.05;;;7.90;86.70;;;;;;5051524;28;20083;-84
2020/12/02 07:16:28;;;;;;;1.90;1.20;;;7.90;86.70;;;;;;5026770;28;20064;-84
2020/12/02 07:19:01;;;;;;;1.63;1.40;;;7.90;86.70;;;;;;5042457;28;20421;-86
2020/12/02 07:21:33;;;;;;;2.47;1.30;;;7.90;86.60;;;;;;5032800;28;20052;-84
2020/12/02 07:24:00;;;;;;;1.80;1.65;;;7.90;86.60;;;;;;5050490;28;20032;-84
2020/12/02 07:26:26;;;;;;;1.48;1.10;;;8.00;86.70;;;;;;5053329;28;20025;-84
2020/12/02 07:29:11;;;;;;;2.20;1.88;;;8.00;86.70;;;;;;5053637;28;20025;-85
2020/12/02 07:31:37;;;;;;;1.58;1.25;;;8.00;86.80;;;;;;5046244;28;20033;-88
2020/12/02 07:34:10;;;;;;;2.47;1.80;;;8.00;86.80;;;;;;5043610;28;20037;-88
2020/12/02 07:36:35;;;;;;;1.90;1.25;;;8.00;86.80;;;;;;5051844;28;20035;-87
2020/12/02 07:39:22;;;;;;;1.92;1.25;;;8.00;86.70;;;;;;5053405;28;20096;-89
2020/12/02 07:41:55;;;;;;;1.88;1.42;;;8.00;86.50;;;;;;5054298;28;20021;-84
2020/12/02 07:44:22;;;;;;;2.70;1.70;;;8.00;86.60;;;;;;5053294;28;20036;-85
2020/12/02 07:46:49;;;;;;;2.45;1.45;;;8.00;86.60;;;;;;5062900;28;20102;-88
2020/12/02 07:49:16;;;;;;;1.95;1.38;;;8.00;86.70;;;;;;5056358;28;20029;-84
2020/12/02 07:51:49;;;;;;;1.20;1.13;;;8.00;86.70;;;;;;5047124;28;20049;-82
2020/12/02 07:54:24;;;;;;;2.72;1.30;;;8.00;86.60;;;;;;5049777;28;20129;-88
2020/12/02 07:56:51;;;;;;;2.75;1.80;;;8.10;86.50;;;;;;5051626;28;20040;-91
2020/12/02 07:59:22;;;;;;;3.47;1.42;;;8.10;86.40;;;;;;5041028;28;20041;-87
2020/12/02 08:02:01;;;;;;;0.93;0.93;;;8.10;86.40;;;;;;5034065;28;20494;-91
2020/12/02 08:04:29;;;;;;;2.10;1.50;;;8.10;86.40;;;;;;5051458;28;20107;-91
2020/12/02 08:07:42;;;;;;;1.08;0.95;;;8.10;86.40;;;;;;5051160;28;20060;-89
2020/12/02 08:10:19;;;;;;;1.63;1.33;;;8.10;86.30;;;;;;5064333;28;20032;-91
2020/12/02 08:12:45;;;;;;;1.45;1.00;;;8.10;86.50;;;;;;5065432;28;20029;-89
2020/12/02 08:15:12;;;;;;;2.30;1.33;;;8.10;86.50;;;;;;5063331;28;20021;-90
2020/12/02 08:17:41;;;;;;;1.00;0.90;;;8.10;86.50;;;;;;5052897;28;20037;-92
2020/12/02 08:20:33;;;;;;;1.70;1.30;;;8.00;86.50;;;;;;5049149;28;20025;-87
2020/12/02 08:23:25;;;;;;;1.38;1.27;;;8.10;86.50;;;;;;5043672;28;20073;-90
2020/12/02 08:26:11;;;;;;;1.45;0.95;;;8.10;86.60;;;;;;5047406;28;20021;-90
2020/12/02 08:28:40;;;;;;;1.27;0.95;;;8.10;86.70;;;;;;5055686;28;20035;-90
2020/12/02 08:31:12;;;;;;;3.30;1.45;;;8.10;86.60;;;;;;5055569;28;20079;-88
2020/12/02 08:33:40;;;;;;;1.23;1.13;;;8.10;86.60;;;;;;5040102;28;20045;-88
2020/12/02 08:36:09;;;;;;;1.77;1.07;;;8.10;86.40;;;;;;5059029;28;20017;-90
2020/12/02 08:38:40;;;;;;;0.70;0.70;;;8.20;86.30;;;;;;5057496;28;20110;-85
2020/12/02 08:41:15;;;;;;;1.50;1.15;;;8.20;86.20;;;;;;5055408;28;20045;-85
2020/12/02 08:43:49;;;;;;;1.75;1.10;;;8.30;86.10;;;;;;5038003;28;20021;-86
2020/12/02 08:46:27;;;;;;;1.10;1.00;;;8.20;86.10;;;;;;5037891;28;20081;-87
2020/12/02 08:49:02;;;;;;;1.30;1.10;;;8.30;86.20;;;;;;5036998;28;20036;-84
2020/12/02 08:51:28;;;;;;;0.93;0.93;;;8.30;86.30;;;;;;5037638;28;20038;-90
2020/12/02 08:53:56;;;;;;;1.67;1.58;;;8.30;86.30;;;;;;5036084;28;20037;-89
2020/12/02 08:56:29;;;;;;;0.95;0.95;;;8.30;86.30;;;;;;5049920;28;20024;-85
2020/12/02 08:58:55;;;;;;;1.73;1.60;;;8.30;86.20;;;;;;5064087;28;20028;-90
2020/12/02 09:01:20;;;;;;;1.10;1.00;;;8.20;86.20;;;;;;5051868;28;20029;-90
2020/12/02 09:03:46;;;;;;;1.38;1.05;;;8.20;86.40;;;;;;5048316;28;20469;-86
2020/12/02 09:06:16;;;;;;;2.00;1.10;;;8.20;87.00;;;;;;5055643;28;20458;-85
2020/12/02 09:08:41;;;;;;;1.85;1.20;;;8.20;86.40;;;;;;5057986;28;20061;-89
2020/12/02 09:11:07;;;;;;;1.40;1.30;;;8.30;86.30;;;;;;5060345;28;20037;-88
2020/12/02 09:13:33;;;;;;;1.52;1.38;;;8.30;86.30;;;;;;5055581;28;20086;-82
2020/12/02 09:15:58;;;;;;;1.60;1.23;;;8.30;86.30;;;;;;5062696;28;20043;-89
2020/12/02 09:18:24;;;;;;;2.13;1.13;;;8.20;86.30;;;;;;5066776;28;20036;-88
2020/12/02 09:20:50;;;;;;;1.10;1.00;;;8.30;86.40;;;;;;5040464;28;20052;-85
2020/12/02 09:23:15;;;;;;;2.17;1.27;;;8.30;86.30;;;;;;5041127;28;20037;-87
2020/12/02 09:25:41;;;;;;;1.95;1.30;;;8.30;86.30;;;;;;5049188;28;20036;-86
2020/12/02 09:28:06;;;;;;;2.60;1.30;;;8.30;86.20;;;;;;5049795;28;20520;-80
2020/12/02 09:30:32;;;;;;;1.58;1.10;;;8.30;86.10;;;;;;5051360;28;20040;-87
2020/12/02 09:32:58;;;;;;;1.27;0.95;;;8.40;86.10;;;;;;5048255;28;20077;-89
2020/12/02 09:35:23;;;;;;;1.52;1.17;;;8.40;86.00;;;;;;5039707;28;20044;-82
2020/12/02 09:37:49;;;;;;;1.15;1.05;;;8.40;86.00;;;;;;5044045;28;20051;-83
2020/12/02 09:40:16;;;;;;;1.15;0.90;;;8.40;85.90;;;;;;5050740;28;20033;-85
2020/12/02 09:43:00;;;;;;;1.65;1.52;;;8.40;85.90;;;;;;5056697;28;20063;-88
2020/12/02 09:45:50;;;;;;;1.08;0.98;;;8.50;85.80;;;;;;5067445;28;20037;-86
2020/12/02 09:48:18;;;;;;;2.70;1.27;;;8.50;85.80;;;;;;5036855;28;20017;-90
2020/12/02 09:50:44;;;;;;;1.70;1.50;;;8.50;85.80;;;;;;5049154;28;20017;-83
2020/12/02 09:53:30;;;;;;;1.42;1.23;;;8.50;85.90;;;;;;5055107;28;20025;-85
2020/12/02 09:55:56;;;;;;;1.42;1.33;;;8.50;85.90;;;;;;5054774;28;20128;-85
2020/12/02 09:58:23;;;;;;;0.90;0.90;;;8.50;86.00;;;;;;5055372;28;20359;-85
2020/12/02 10:00:53;;;;;;;0.95;0.82;;;8.40;86.00;;;;;;5056124;28;20036;-82
2020/12/02 10:04:01;;;;;;;1.50;1.10;;;8.40;85.90;;;;;;5055429;28;20120;-89
2020/12/02 10:06:46;;;;;;;0.90;0.90;;;8.50;85.90;;;;;;5053592;28;20033;-88
2020/12/02 10:09:33;;;;;;;1.15;1.05;;;8.50;85.90;;;;;;5052380;28;20100;-90
2020/12/02 10:12:40;;;;;;;0.98;0.98;;;8.50;85.80;;;;;;5055743;28;20049;-84
2020/12/02 10:15:24;;;;;;;1.00;0.82;;;8.50;85.80;;;;;;5055770;28;20071;-82
2020/12/02 10:17:53;;;;;;;1.27;1.05;;;8.50;85.90;;;;;;5047592;28;20079;-79
2020/12/02 10:20:24;;;;;;;1.08;1.00;;;8.50;85.90;;;;;;5052747;28;20467;-82
2020/12/02 10:23:12;;;;;;;1.15;1.05;;;8.50;85.80;;;;;;5054656;28;20480;-79
2020/12/02 10:26:00;;;;;;;1.10;0.98;;;8.50;85.80;;;;;;5052005;28;20029;-83
2020/12/02 10:28:34;;;;;;;1.48;1.38;;;8.50;85.90;;;;;;5051145;28;20040;-84
2020/12/02 10:31:34;;;;;;;1.27;1.13;;;8.50;85.90;;;;;;5052317;28;20025;-82
2020/12/02 10:34:11;;;;;;;1.67;1.30;;;8.50;85.90;;;;;;5052162;28;20048;-85
2020/12/02 10:36:41;;;;;;;1.85;1.48;;;8.50;86.00;;;;;;5052155;28;20021;-86
2020/12/02 10:39:12;;;;;;;1.20;0.90;;;8.50;86.00;;;;;;5048542;28;20057;-86
2020/12/02 10:41:53;;;;;;;1.00;0.90;;;8.60;86.00;;;;;;5055916;28;20021;-87
2020/12/02 10:44:44;;;;;;;1.35;0.93;;;8.60;85.90;;;;;;5057342;28;20140;-89
2020/12/02 10:47:38;;;;;;;1.17;1.08;;;8.60;85.80;;;;;;5056885;28;20025;-86
2020/12/02 10:50:07;;;;;;;1.20;1.10;;;8.60;85.80;;;;;;5051315;28;20033;-85
2020/12/02 10:52:32;;;;;;;1.10;1.00;;;8.60;85.80;;;;;;5053557;28;20083;-83
2020/12/02 10:54:59;;;;;;;1.00;0.90;;;8.60;85.70;;;;;;5056723;28;20037;-85
2020/12/02 10:57:25;;;;;;;1.42;1.10;;;8.70;85.70;;;;;;5062834;28;20025;-85
2020/12/02 10:59:55;;;;;;;1.50;0.80;;;8.70;85.70;;;;;;5071299;28;20013;-83
2020/12/02 11:02:29;;;;;;;1.33;1.20;;;8.70;85.60;;;;;;5055646;28;20025;-80
2020/12/02 11:04:55;;;;;;;2.03;1.20;;;8.70;85.60;;;;;;5046205;28;20477;-83
2020/12/02 11:08:05;;;;;;;1.02;1.00;;;8.70;85.60;;;;;;5053068;28;20035;-87
2020/12/02 11:10:49;;;;;;;0.93;0.90;;;8.70;85.50;;;;;;5051980;28;20028;-84
2020/12/02 11:13:30;;;;;;;1.10;1.00;;;8.60;85.50;;;;;;5055227;28;20505;-89
2020/12/02 11:16:12;;;;;;;1.02;0.93;;;8.60;85.60;;;;;;5051174;28;20020;-84
2020/12/02 11:18:55;;;;;;;1.02;0.88;;;8.70;85.60;;;;;;5073777;28;20060;-84
2020/12/02 11:21:32;;;;;;;1.05;0.98;;;8.60;85.60;;;;;;5063562;28;20493;-85
2020/12/02 11:24:25;;;;;;;1.08;1.08;;;8.70;85.60;;;;;;5051500;28;20508;-79
2020/12/02 11:26:51;;;;;;;1.52;0.95;;;8.70;85.60;;;;;;5052892;28;20397;-81
2020/12/02 11:29:18;;;;;;;1.95;1.48;;;8.60;85.70;;;;;;5055086;28;20063;-90
2020/12/02 11:31:46;;;;;;;1.45;1.10;;;8.60;85.70;;;;;;5059955;28;20494;-80
2020/12/02 11:34:12;;;;;;;1.70;1.05;;;8.60;85.80;;;;;;5041534;28;20501;-81
2020/12/02 11:37:08;;;;;;;1.95;1.00;;;8.70;85.80;;;;;;5056568;28;20131;-81
2020/12/02 11:39:48;;;;;;;3.00;1.23;;;8.70;85.60;;;;;;5036706;28;20075;-83
2020/12/02 11:42:45;;;;;;;1.23;1.00;;;8.70;85.60;;;;;;5054054;28;20131;-79
2020/12/02 11:45:24;;;;;;;1.58;1.00;;;8.70;85.60;;;;;;5046080;28;20060;-82
2020/12/02 11:48:22;;;;;;;1.38;1.13;;;8.70;85.60;;;;;;5053877;28;20041;-85
2020/12/02 11:51:13;;;;;;;1.48;1.08;;;8.70;85.70;;;;;;5055166;28;20025;-86
2020/12/02 11:53:56;;;;;;;1.15;0.88;;;8.70;85.70;;;;;;5053437;28;20049;-86
2020/12/02 11:56:30;;;;;;;1.48;0.82;;;8.70;85.70;;;;;;5054432;28;20470;-84
2020/12/02 11:59:13;;;;;;;2.25;1.45;;;8.60;85.70;;;;;;5053143;28;20025;-86
2020/12/02 12:01:53;;;;;;;2.00;1.10;;;8.60;85.70;;;;;;5053982;28;20021;-82
2020/12/02 12:04:34;;;;;;;1.00;1.00;;;8.60;85.80;;;;;;5051756;28;20036;-83
2020/12/02 12:07:26;;;;;;;1.58;1.35;;;8.60;86.00;;;;;;5040949;28;20028;-83
2020/12/02 12:09:59;;;;;;;1.35;1.13;;;8.60;86.00;;;;;;5055703;28;20029;-81
2020/12/02 12:12:51;;;;;;;1.13;0.93;;;8.60;85.90;;;;;;5055697;28;20033;-81
2020/12/02 12:15:38;;;;;;;1.63;1.20;;;8.60;86.00;;;;;;5051373;28;20067;-79
2020/12/02 12:18:13;;;;;;;1.00;0.90;;;8.60;85.90;;;;;;5055622;28;20399;-87
2020/12/02 12:20:41;;;;;;;1.70;1.00;;;8.60;86.00;;;;;;5055946;28;20036;-78
2020/12/02 12:23:29;;;;;;;0.90;0.80;;;8.60;86.00;;;;;;5052780;28;20087;-80
2020/12/02 12:25:56;;;;;;;2.35;1.45;;;8.60;86.40;;;;;;5041606;28;20065;-80
2020/12/02 12:28:28;;;;;;;2.38;1.10;;;8.60;85.90;;;;;;5050927;28;20162;-79
2020/12/02 12:31:03;;;;;;;1.42;1.00;;;8.60;85.90;;;;;;5054325;28;20033;-80
2020/12/02 12:33:40;;;;;;;2.05;1.42;;;8.70;85.90;;;;;;5054780;28;20044;-79
2020/12/02 12:36:20;;;;;;;1.48;1.38;;;8.70;85.70;;;;;;5049092;28;21611;-84
2020/12/02 12:39:12;;;;;;;1.88;1.23;;;8.70;85.70;;;;;;5052284;28;20025;-88
2020/12/02 12:41:43;;;;;;;1.45;1.20;;;8.70;85.60;;;;;;5048592;28;20033;-86
2020/12/02 12:44:20;;;;;;;1.30;1.08;;;8.70;85.80;;;;;;5055354;28;20021;-83
2020/12/02 12:47:14;;;;;;;1.33;1.13;;;8.70;85.70;;;;;;5046506;28;20056;-80
2020/12/02 12:49:39;;;;;;;3.28;1.65;;;8.70;85.60;;;;;;5044214;28;20029;-83
2020/12/02 12:52:05;;;;;;;2.15;1.00;;;8.70;85.60;;;;;;5042968;28;20044;-79
2020/12/02 12:54:34;;;;;;;1.42;1.33;;;8.70;85.50;;;;;;5041857;28;20024;-79
2020/12/02 12:57:00;;;;;;;1.73;1.33;;;8.70;85.50;;;;;;5042061;28;20036;-79
2020/12/02 12:59:27;;;;;;;2.40;1.20;;;8.70;85.60;;;;;;5034557;28;20022;-83
2020/12/02 13:01:56;;;;;;;1.92;1.23;;;8.70;85.70;;;;;;5053139;28;20037;-90
2020/12/02 13:04:24;;;;;;;2.20;1.23;;;8.70;85.60;;;;;;5053999;28;20021;-82
2020/12/02 13:06:50;;;;;;;1.85;1.30;;;8.70;85.50;;;;;;5039231;28;20029;-84
2020/12/02 13:09:49;;;;;;;1.05;0.80;;;8.70;85.50;;;;;;5050487;28;20031;-86
2020/12/02 13:12:36;;;;;;;1.27;0.90;;;8.70;85.60;;;;;;5031806;28;20052;-85
2020/12/02 13:15:15;;;;;;;1.23;1.10;;;8.70;85.60;;;;;;5027617;28;20541;-84
2020/12/02 13:17:43;;;;;;;1.30;1.20;;;8.70;85.50;;;;;;5046190;28;20045;-85
2020/12/02 13:20:21;;;;;;;1.35;1.02;;;8.70;85.50;;;;;;5055118;28;20029;-83
2020/12/02 13:23:14;;;;;;;1.23;1.13;;;8.70;85.50;;;;;;5040890;28;20045;-86
2020/12/02 13:25:52;;;;;;;1.73;1.30;;;8.70;85.50;;;;;;5048922;28;20034;-86
2020/12/02 13:28:39;;;;;;;1.42;1.13;;;8.70;86.20;;;;;;5060540;28;20100;-84
2020/12/02 13:31:13;;;;;;;0.88;0.88;;;8.70;85.60;;;;;;5029780;28;20044;-85